sensor_id;sensor_type;location;lat;lon;timestamp;P1;durP1;ratioP1;P2;durP2;ratioP2
287;SDS011;128;48.770;9.198;2023-05-29T00:02:19;11.93;;;4.70;;
287;SDS011;128;48.770;9.198;2023-05-29T00:04:44;9.67;;;5.43;;
287;SDS011;128;48.770;9.198;2023-05-29T00:07:10;12.27;;;6.17;;
287;SDS011;128;48.770;9.198;2023-05-29T00:09:36;10.10;;;4.27;;
287;SDS011;128;48.770;9.198;2023-05-29T00:12:02;11.50;;;5.33;;
287;SDS011;128;48.770;9.198;2023-05-29T00:14:28;10.23;;;5.17;;
287;SDS011;128;48.770;9.198;2023-05-29T00:16:54;10.50;;;4.83;;
287;SDS011;128;48.770;9.198;2023-05-29T00:19:21;9.87;;;5.00;;
287;SDS011;128;48.770;9.198;2023-05-29T00:21:49;8.37;;;4.67;;
287;SDS011;128;48.770;9.198;2023-05-29T00:24:16;10.60;;;5.07;;
287;SDS011;128;48.770;9.198;2023-05-29T00:26:42;10.07;;;4.63;;
287;SDS011;128;48.770;9.198;2023-05-29T00:29:08;11.37;;;5.77;;
287;SDS011;128;48.770;9.198;2023-05-29T00:31:34;12.00;;;5.20;;
287;SDS011;128;48.770;9.198;2023-05-29T00:34:01;13.33;;;6.33;;
287;SDS011;128;48.770;9.198;2023-05-29T00:36:27;11.37;;;5.97;;
287;SDS011;128;48.770;9.198;2023-05-29T00:38:54;14.10;;;5.30;;
287;SDS011;128;48.770;9.198;2023-05-29T00:41:20;10.83;;;5.10;;
287;SDS011;128;48.770;9.198;2023-05-29T00:43:46;12.70;;;5.20;;
287;SDS011;128;48.770;9.198;2023-05-29T00:46:12;16.40;;;5.57;;
287;SDS011;128;48.770;9.198;2023-05-29T00:48:39;10.10;;;5.97;;
287;SDS011;128;48.770;9.198;2023-05-29T00:51:06;16.03;;;5.70;;
287;SDS011;128;48.770;9.198;2023-05-29T00:53:32;10.00;;;5.80;;
287;SDS011;128;48.770;9.198;2023-05-29T00:55:58;15.73;;;6.20;;
287;SDS011;128;48.770;9.198;2023-05-29T00:58:25;9.70;;;4.40;;
287;SDS011;128;48.770;9.198;2023-05-29T01:00:51;11.00;;;6.33;;
287;SDS011;128;48.770;9.198;2023-05-29T01:03:17;13.60;;;7.17;;
287;SDS011;128;48.770;9.198;2023-05-29T01:05:44;14.10;;;6.03;;
287;SDS011;128;48.770;9.198;2023-05-29T01:08:11;13.00;;;6.37;;
287;SDS011;128;48.770;9.198;2023-05-29T01:10:37;13.83;;;6.00;;
287;SDS011;128;48.770;9.198;2023-05-29T01:13:08;17.67;;;5.40;;
287;SDS011;128;48.770;9.198;2023-05-29T01:15:41;9.63;;;5.33;;
287;SDS011;128;48.770;9.198;2023-05-29T01:18:17;14.00;;;5.97;;
287;SDS011;128;48.770;9.198;2023-05-29T01:20:50;11.13;;;5.70;;
287;SDS011;128;48.770;9.198;2023-05-29T01:28:14;10.43;;;6.03;;
287;SDS011;128;48.770;9.198;2023-05-29T01:30:41;14.20;;;6.17;;
287;SDS011;128;48.770;9.198;2023-05-29T01:33:08;10.80;;;5.37;;
287;SDS011;128;48.770;9.198;2023-05-29T01:35:34;12.40;;;5.47;;
287;SDS011;128;48.770;9.198;2023-05-29T01:38:00;13.03;;;5.70;;
287;SDS011;128;48.770;9.198;2023-05-29T01:40:26;13.13;;;5.27;;
287;SDS011;128;48.770;9.198;2023-05-29T01:42:52;17.13;;;5.40;;
287;SDS011;128;48.770;9.198;2023-05-29T01:45:18;13.60;;;6.17;;
287;SDS011;128;48.770;9.198;2023-05-29T01:47:44;15.43;;;6.43;;
287;SDS011;128;48.770;9.198;2023-05-29T01:50:10;12.53;;;5.33;;
287;SDS011;128;48.770;9.198;2023-05-29T01:52:38;12.97;;;6.00;;
287;SDS011;128;48.770;9.198;2023-05-29T01:55:05;10.60;;;5.27;;
287;SDS011;128;48.770;9.198;2023-05-29T01:57:31;16.20;;;6.97;;
287;SDS011;128;48.770;9.198;2023-05-29T01:59:57;9.40;;;5.83;;
287;SDS011;128;48.770;9.198;2023-05-29T02:02:23;13.33;;;5.90;;
287;SDS011;128;48.770;9.198;2023-05-29T02:04:49;11.07;;;5.27;;
287;SDS011;128;48.770;9.198;2023-05-29T02:07:16;11.70;;;6.23;;
287;SDS011;128;48.770;9.198;2023-05-29T02:09:42;11.80;;;5.50;;
287;SDS011;128;48.770;9.198;2023-05-29T02:12:08;12.97;;;5.63;;
287;SDS011;128;48.770;9.198;2023-05-29T02:14:34;14.23;;;6.03;;
287;SDS011;128;48.770;9.198;2023-05-29T02:17:00;11.87;;;6.10;;
287;SDS011;128;48.770;9.198;2023-05-29T02:19:26;13.77;;;5.90;;
287;SDS011;128;48.770;9.198;2023-05-29T02:21:52;13.07;;;6.00;;
287;SDS011;128;48.770;9.198;2023-05-29T02:24:18;10.67;;;5.60;;
287;SDS011;128;48.770;9.198;2023-05-29T02:26:45;11.77;;;5.87;;
287;SDS011;128;48.770;9.198;2023-05-29T02:29:11;14.00;;;5.50;;
287;SDS011;128;48.770;9.198;2023-05-29T02:31:37;9.53;;;5.87;;
287;SDS011;128;48.770;9.198;2023-05-29T02:34:03;16.43;;;6.63;;
287;SDS011;128;48.770;9.198;2023-05-29T02:36:29;8.97;;;4.90;;
287;SDS011;128;48.770;9.198;2023-05-29T02:38:55;14.40;;;6.23;;
287;SDS011;128;48.770;9.198;2023-05-29T02:41:21;25.13;;;6.30;;
287;SDS011;128;48.770;9.198;2023-05-29T02:43:47;9.53;;;4.97;;
287;SDS011;128;48.770;9.198;2023-05-29T02:46:13;11.87;;;6.27;;
287;SDS011;128;48.770;9.198;2023-05-29T02:48:39;11.83;;;6.20;;
287;SDS011;128;48.770;9.198;2023-05-29T02:51:05;14.10;;;5.33;;
287;SDS011;128;48.770;9.198;2023-05-29T02:53:31;17.00;;;6.43;;
287;SDS011;128;48.770;9.198;2023-05-29T02:55:57;19.70;;;6.60;;
287;SDS011;128;48.770;9.198;2023-05-29T02:58:23;10.80;;;5.77;;
287;SDS011;128;48.770;9.198;2023-05-29T03:00:48;15.90;;;5.90;;
287;SDS011;128;48.770;9.198;2023-05-29T03:03:15;11.90;;;5.93;;
287;SDS011;128;48.770;9.198;2023-05-29T03:05:41;11.17;;;5.53;;
287;SDS011;128;48.770;9.198;2023-05-29T03:08:07;11.23;;;5.20;;
287;SDS011;128;48.770;9.198;2023-05-29T03:10:33;19.83;;;6.03;;
287;SDS011;128;48.770;9.198;2023-05-29T03:12:59;12.60;;;6.63;;
287;SDS011;128;48.770;9.198;2023-05-29T03:15:24;11.07;;;5.20;;
287;SDS011;128;48.770;9.198;2023-05-29T03:17:50;12.93;;;5.97;;
287;SDS011;128;48.770;9.198;2023-05-29T03:20:16;10.27;;;5.50;;
287;SDS011;128;48.770;9.198;2023-05-29T03:22:42;12.83;;;6.80;;
287;SDS011;128;48.770;9.198;2023-05-29T03:25:08;15.23;;;6.50;;
287;SDS011;128;48.770;9.198;2023-05-29T03:27:34;13.73;;;5.80;;
287;SDS011;128;48.770;9.198;2023-05-29T03:30:00;9.93;;;4.90;;
287;SDS011;128;48.770;9.198;2023-05-29T03:32:26;14.30;;;6.27;;
287;SDS011;128;48.770;9.198;2023-05-29T03:34:52;10.97;;;5.50;;
287;SDS011;128;48.770;9.198;2023-05-29T03:37:18;12.33;;;5.37;;
287;SDS011;128;48.770;9.198;2023-05-29T03:39:44;10.27;;;5.20;;
287;SDS011;128;48.770;9.198;2023-05-29T03:42:10;9.07;;;5.43;;
287;SDS011;128;48.770;9.198;2023-05-29T03:44:36;14.83;;;5.77;;
287;SDS011;128;48.770;9.198;2023-05-29T03:47:02;11.67;;;5.70;;
287;SDS011;128;48.770;9.198;2023-05-29T03:49:27;10.93;;;6.13;;
287;SDS011;128;48.770;9.198;2023-05-29T03:51:53;12.10;;;5.90;;
287;SDS011;128;48.770;9.198;2023-05-29T03:54:19;11.57;;;5.27;;
287;SDS011;128;48.770;9.198;2023-05-29T03:56:45;28.00;;;5.90;;
287;SDS011;128;48.770;9.198;2023-05-29T03:59:11;18.33;;;6.83;;
287;SDS011;128;48.770;9.198;2023-05-29T04:01:37;23.10;;;6.03;;
287;SDS011;128;48.770;9.198;2023-05-29T04:04:03;12.90;;;5.13;;
287;SDS011;128;48.770;9.198;2023-05-29T04:06:29;13.57;;;5.47;;
287;SDS011;128;48.770;9.198;2023-05-29T04:08:55;15.00;;;6.10;;
287;SDS011;128;48.770;9.198;2023-05-29T04:11:21;13.27;;;6.13;;
287;SDS011;128;48.770;9.198;2023-05-29T04:13:47;14.13;;;6.47;;
287;SDS011;128;48.770;9.198;2023-05-29T04:16:14;15.43;;;5.80;;
287;SDS011;128;48.770;9.198;2023-05-29T04:18:40;9.13;;;5.50;;
287;SDS011;128;48.770;9.198;2023-05-29T04:21:06;13.17;;;5.43;;
287;SDS011;128;48.770;9.198;2023-05-29T04:23:32;12.37;;;5.33;;
287;SDS011;128;48.770;9.198;2023-05-29T04:25:58;13.53;;;5.47;;
287;SDS011;128;48.770;9.198;2023-05-29T04:28:26;14.13;;;5.90;;
287;SDS011;128;48.770;9.198;2023-05-29T04:30:52;14.80;;;5.57;;
287;SDS011;128;48.770;9.198;2023-05-29T04:33:20;11.80;;;5.60;;
287;SDS011;128;48.770;9.198;2023-05-29T04:35:48;15.33;;;5.53;;
287;SDS011;128;48.770;9.198;2023-05-29T04:38:14;12.63;;;5.10;;
287;SDS011;128;48.770;9.198;2023-05-29T04:40:40;13.13;;;5.80;;
287;SDS011;128;48.770;9.198;2023-05-29T04:43:06;11.40;;;6.30;;
287;SDS011;128;48.770;9.198;2023-05-29T04:45:32;15.60;;;6.13;;
287;SDS011;128;48.770;9.198;2023-05-29T04:47:59;11.80;;;6.80;;
287;SDS011;128;48.770;9.198;2023-05-29T04:50:25;11.37;;;5.83;;
287;SDS011;128;48.770;9.198;2023-05-29T04:52:55;13.23;;;6.57;;
287;SDS011;128;48.770;9.198;2023-05-29T04:55:22;11.97;;;6.90;;
287;SDS011;128;48.770;9.198;2023-05-29T04:57:48;9.50;;;5.43;;
287;SDS011;128;48.770;9.198;2023-05-29T05:00:14;18.00;;;4.90;;
287;SDS011;128;48.770;9.198;2023-05-29T05:02:43;12.13;;;5.47;;
287;SDS011;128;48.770;9.198;2023-05-29T05:05:09;13.87;;;6.00;;
287;SDS011;128;48.770;9.198;2023-05-29T05:07:35;12.67;;;5.03;;
287;SDS011;128;48.770;9.198;2023-05-29T05:10:04;12.83;;;5.07;;
287;SDS011;128;48.770;9.198;2023-05-29T05:12:31;11.60;;;5.90;;
287;SDS011;128;48.770;9.198;2023-05-29T05:14:57;10.33;;;5.43;;
287;SDS011;128;48.770;9.198;2023-05-29T05:17:23;12.70;;;5.93;;
287;SDS011;128;48.770;9.198;2023-05-29T05:19:49;12.80;;;5.90;;
287;SDS011;128;48.770;9.198;2023-05-29T05:22:15;12.87;;;6.20;;
287;SDS011;128;48.770;9.198;2023-05-29T05:24:41;14.63;;;5.63;;
287;SDS011;128;48.770;9.198;2023-05-29T05:27:07;12.00;;;5.70;;
287;SDS011;128;48.770;9.198;2023-05-29T05:29:33;11.20;;;5.53;;
287;SDS011;128;48.770;9.198;2023-05-29T05:31:59;10.43;;;5.60;;
287;SDS011;128;48.770;9.198;2023-05-29T05:34:24;13.93;;;7.10;;
287;SDS011;128;48.770;9.198;2023-05-29T05:36:50;14.00;;;5.93;;
287;SDS011;128;48.770;9.198;2023-05-29T05:39:16;15.90;;;5.20;;
287;SDS011;128;48.770;9.198;2023-05-29T05:41:42;9.97;;;5.27;;
287;SDS011;128;48.770;9.198;2023-05-29T05:44:08;12.80;;;6.00;;
287;SDS011;128;48.770;9.198;2023-05-29T05:46:34;13.63;;;6.60;;
287;SDS011;128;48.770;9.198;2023-05-29T05:49:00;15.50;;;6.00;;
287;SDS011;128;48.770;9.198;2023-05-29T05:51:26;16.63;;;6.40;;
287;SDS011;128;48.770;9.198;2023-05-29T05:53:52;13.80;;;6.57;;
287;SDS011;128;48.770;9.198;2023-05-29T05:56:18;12.00;;;5.83;;
287;SDS011;128;48.770;9.198;2023-05-29T05:58:44;12.57;;;5.63;;
287;SDS011;128;48.770;9.198;2023-05-29T06:01:10;12.90;;;6.57;;
287;SDS011;128;48.770;9.198;2023-05-29T06:03:36;14.37;;;6.90;;
287;SDS011;128;48.770;9.198;2023-05-29T06:06:02;12.07;;;6.30;;
287;SDS011;128;48.770;9.198;2023-05-29T06:08:28;30.00;;;7.03;;
287;SDS011;128;48.770;9.198;2023-05-29T06:10:55;16.37;;;5.80;;
287;SDS011;128;48.770;9.198;2023-05-29T06:13:21;13.10;;;6.00;;
287;SDS011;128;48.770;9.198;2023-05-29T06:15:47;12.50;;;5.30;;
287;SDS011;128;48.770;9.198;2023-05-29T06:18:14;11.47;;;5.87;;
287;SDS011;128;48.770;9.198;2023-05-29T06:20:40;12.43;;;5.77;;
287;SDS011;128;48.770;9.198;2023-05-29T06:23:06;11.97;;;5.80;;
287;SDS011;128;48.770;9.198;2023-05-29T06:25:32;14.43;;;5.57;;
287;SDS011;128;48.770;9.198;2023-05-29T06:28:01;13.40;;;5.50;;
287;SDS011;128;48.770;9.198;2023-05-29T06:30:27;18.03;;;7.13;;
287;SDS011;128;48.770;9.198;2023-05-29T06:32:53;17.90;;;6.43;;
287;SDS011;128;48.770;9.198;2023-05-29T06:35:20;12.70;;;5.87;;
287;SDS011;128;48.770;9.198;2023-05-29T06:37:46;15.80;;;6.07;;
287;SDS011;128;48.770;9.198;2023-05-29T06:40:12;11.57;;;5.80;;
287;SDS011;128;48.770;9.198;2023-05-29T06:42:38;10.50;;;5.50;;
287;SDS011;128;48.770;9.198;2023-05-29T06:45:04;21.33;;;6.17;;
287;SDS011;128;48.770;9.198;2023-05-29T06:47:30;14.67;;;5.60;;
287;SDS011;128;48.770;9.198;2023-05-29T06:49:56;12.20;;;4.67;;
287;SDS011;128;48.770;9.198;2023-05-29T06:52:22;10.67;;;5.40;;
287;SDS011;128;48.770;9.198;2023-05-29T06:54:48;9.73;;;5.07;;
287;SDS011;128;48.770;9.198;2023-05-29T06:57:14;12.40;;;5.87;;
287;SDS011;128;48.770;9.198;2023-05-29T06:59:40;13.23;;;5.90;;
287;SDS011;128;48.770;9.198;2023-05-29T07:02:06;13.13;;;5.33;;
287;SDS011;128;48.770;9.198;2023-05-29T07:04:32;20.50;;;5.80;;
287;SDS011;128;48.770;9.198;2023-05-29T07:06:58;10.20;;;5.50;;
287;SDS011;128;48.770;9.198;2023-05-29T07:09:24;11.83;;;4.80;;
287;SDS011;128;48.770;9.198;2023-05-29T07:11:50;12.80;;;5.93;;
287;SDS011;128;48.770;9.198;2023-05-29T07:14:16;11.37;;;4.70;;
287;SDS011;128;48.770;9.198;2023-05-29T07:16:42;14.43;;;5.87;;
287;SDS011;128;48.770;9.198;2023-05-29T07:19:08;11.20;;;6.43;;
287;SDS011;128;48.770;9.198;2023-05-29T07:21:36;14.90;;;4.83;;
287;SDS011;128;48.770;9.198;2023-05-29T07:24:02;27.70;;;6.27;;
287;SDS011;128;48.770;9.198;2023-05-29T07:26:28;10.93;;;5.20;;
287;SDS011;128;48.770;9.198;2023-05-29T07:28:55;12.60;;;6.40;;
287;SDS011;128;48.770;9.198;2023-05-29T07:31:21;10.47;;;4.93;;
287;SDS011;128;48.770;9.198;2023-05-29T07:33:47;10.83;;;5.17;;
287;SDS011;128;48.770;9.198;2023-05-29T07:36:15;10.00;;;5.00;;
287;SDS011;128;48.770;9.198;2023-05-29T07:38:42;10.77;;;5.43;;
287;SDS011;128;48.770;9.198;2023-05-29T07:41:08;13.90;;;4.90;;
287;SDS011;128;48.770;9.198;2023-05-29T07:43:34;10.80;;;5.27;;
287;SDS011;128;48.770;9.198;2023-05-29T07:46:00;10.33;;;4.63;;
287;SDS011;128;48.770;9.198;2023-05-29T07:48:26;10.30;;;4.70;;
287;SDS011;128;48.770;9.198;2023-05-29T07:50:52;7.30;;;4.10;;
287;SDS011;128;48.770;9.198;2023-05-29T07:53:18;16.40;;;4.70;;
287;SDS011;128;48.770;9.198;2023-05-29T07:55:44;9.40;;;5.03;;
287;SDS011;128;48.770;9.198;2023-05-29T07:58:10;13.00;;;6.47;;
287;SDS011;128;48.770;9.198;2023-05-29T08:00:36;9.43;;;4.77;;
287;SDS011;128;48.770;9.198;2023-05-29T08:03:03;14.23;;;5.13;;
287;SDS011;128;48.770;9.198;2023-05-29T08:05:29;11.63;;;4.80;;
287;SDS011;128;48.770;9.198;2023-05-29T08:07:56;17.33;;;5.47;;
287;SDS011;128;48.770;9.198;2023-05-29T08:10:23;12.23;;;5.07;;
287;SDS011;128;48.770;9.198;2023-05-29T08:12:50;12.70;;;5.47;;
287;SDS011;128;48.770;9.198;2023-05-29T08:15:17;15.60;;;5.30;;
287;SDS011;128;48.770;9.198;2023-05-29T08:17:42;8.77;;;3.93;;
287;SDS011;128;48.770;9.198;2023-05-29T08:20:08;9.17;;;5.20;;
287;SDS011;128;48.770;9.198;2023-05-29T08:22:35;8.83;;;5.20;;
287;SDS011;128;48.770;9.198;2023-05-29T08:25:01;11.43;;;5.10;;
287;SDS011;128;48.770;9.198;2023-05-29T08:27:27;12.50;;;5.57;;
287;SDS011;128;48.770;9.198;2023-05-29T08:29:53;9.77;;;4.47;;
287;SDS011;128;48.770;9.198;2023-05-29T08:32:19;9.50;;;5.57;;
287;SDS011;128;48.770;9.198;2023-05-29T08:34:45;12.07;;;5.43;;
287;SDS011;128;48.770;9.198;2023-05-29T08:37:12;10.13;;;4.07;;
287;SDS011;128;48.770;9.198;2023-05-29T08:39:38;13.80;;;5.30;;
287;SDS011;128;48.770;9.198;2023-05-29T08:42:04;16.43;;;5.47;;
287;SDS011;128;48.770;9.198;2023-05-29T08:44:33;12.03;;;4.90;;
287;SDS011;128;48.770;9.198;2023-05-29T08:47:02;8.43;;;4.63;;
287;SDS011;128;48.770;9.198;2023-05-29T08:49:40;9.90;;;4.70;;
287;SDS011;128;48.770;9.198;2023-05-29T08:52:10;9.03;;;4.63;;
287;SDS011;128;48.770;9.198;2023-05-29T08:54:37;12.90;;;4.87;;
287;SDS011;128;48.770;9.198;2023-05-29T08:57:03;8.30;;;4.80;;
287;SDS011;128;48.770;9.198;2023-05-29T08:59:29;11.60;;;5.20;;
287;SDS011;128;48.770;9.198;2023-05-29T09:01:56;7.47;;;4.30;;
287;SDS011;128;48.770;9.198;2023-05-29T09:04:22;11.90;;;5.83;;
287;SDS011;128;48.770;9.198;2023-05-29T09:06:48;10.23;;;4.60;;
287;SDS011;128;48.770;9.198;2023-05-29T09:09:15;9.80;;;5.17;;
287;SDS011;128;48.770;9.198;2023-05-29T09:11:41;10.20;;;4.90;;
287;SDS011;128;48.770;9.198;2023-05-29T09:14:11;10.90;;;4.87;;
287;SDS011;128;48.770;9.198;2023-05-29T09:16:41;9.50;;;5.13;;
287;SDS011;128;48.770;9.198;2023-05-29T09:19:08;8.97;;;4.60;;
287;SDS011;128;48.770;9.198;2023-05-29T09:21:34;10.57;;;4.90;;
287;SDS011;128;48.770;9.198;2023-05-29T09:24:04;13.73;;;5.00;;
287;SDS011;128;48.770;9.198;2023-05-29T09:26:33;8.47;;;4.70;;
287;SDS011;128;48.770;9.198;2023-05-29T09:28:59;9.50;;;5.07;;
287;SDS011;128;48.770;9.198;2023-05-29T09:31:26;9.00;;;4.37;;
287;SDS011;128;48.770;9.198;2023-05-29T09:33:52;11.10;;;4.70;;
287;SDS011;128;48.770;9.198;2023-05-29T09:36:21;11.60;;;4.97;;
287;SDS011;128;48.770;9.198;2023-05-29T09:38:47;9.60;;;4.70;;
287;SDS011;128;48.770;9.198;2023-05-29T09:41:13;14.50;;;5.50;;
287;SDS011;128;48.770;9.198;2023-05-29T09:43:47;10.90;;;4.77;;
287;SDS011;128;48.770;9.198;2023-05-29T09:46:14;9.90;;;4.97;;
287;SDS011;128;48.770;9.198;2023-05-29T09:48:42;9.43;;;4.87;;
287;SDS011;128;48.770;9.198;2023-05-29T09:51:18;12.00;;;6.07;;
287;SDS011;128;48.770;9.198;2023-05-29T09:53:44;11.97;;;4.23;;
287;SDS011;128;48.770;9.198;2023-05-29T09:56:11;8.70;;;4.47;;
287;SDS011;128;48.770;9.198;2023-05-29T09:58:40;5.80;;;4.40;;
287;SDS011;128;48.770;9.198;2023-05-29T10:01:11;12.07;;;5.23;;
287;SDS011;128;48.770;9.198;2023-05-29T10:03:37;14.10;;;4.77;;
287;SDS011;128;48.770;9.198;2023-05-29T10:06:03;9.50;;;4.30;;
287;SDS011;128;48.770;9.198;2023-05-29T10:08:30;8.70;;;4.07;;
287;SDS011;128;48.770;9.198;2023-05-29T10:11:00;8.27;;;4.40;;
287;SDS011;128;48.770;9.198;2023-05-29T10:13:34;8.47;;;4.40;;
287;SDS011;128;48.770;9.198;2023-05-29T10:16:01;11.43;;;5.30;;
287;SDS011;128;48.770;9.198;2023-05-29T10:18:32;10.60;;;4.67;;
287;SDS011;128;48.770;9.198;2023-05-29T10:21:00;15.00;;;4.53;;
287;SDS011;128;48.770;9.198;2023-05-29T10:23:27;16.67;;;4.57;;
287;SDS011;128;48.770;9.198;2023-05-29T10:25:55;6.30;;;4.23;;
287;SDS011;128;48.770;9.198;2023-05-29T10:28:24;12.83;;;4.47;;
287;SDS011;128;48.770;9.198;2023-05-29T10:30:53;7.57;;;4.30;;
287;SDS011;128;48.770;9.198;2023-05-29T10:35:48;9.93;;;4.80;;
287;SDS011;128;48.770;9.198;2023-05-29T10:38:18;14.03;;;4.53;;
287;SDS011;128;48.770;9.198;2023-05-29T10:40:44;8.07;;;3.70;;
287;SDS011;128;48.770;9.198;2023-05-29T10:45:56;11.97;;;3.93;;
287;SDS011;128;48.770;9.198;2023-05-29T10:50:54;6.70;;;3.70;;
287;SDS011;128;48.770;9.198;2023-05-29T10:53:23;9.23;;;4.00;;
287;SDS011;128;48.770;9.198;2023-05-29T10:55:51;10.70;;;4.83;;
287;SDS011;128;48.770;9.198;2023-05-29T10:58:21;9.93;;;4.83;;
287;SDS011;128;48.770;9.198;2023-05-29T11:00:50;8.60;;;4.47;;
287;SDS011;128;48.770;9.198;2023-05-29T11:08:41;6.67;;;3.77;;
287;SDS011;128;48.770;9.198;2023-05-29T11:11:11;6.80;;;3.50;;
287;SDS011;128;48.770;9.198;2023-05-29T11:13:37;6.93;;;2.97;;
287;SDS011;128;48.770;9.198;2023-05-29T11:18:31;10.50;;;4.20;;
287;SDS011;128;48.770;9.198;2023-05-29T11:20:57;10.37;;;3.40;;
287;SDS011;128;48.770;9.198;2023-05-29T11:23:25;11.93;;;4.17;;
287;SDS011;128;48.770;9.198;2023-05-29T11:25:55;7.40;;;3.87;;
287;SDS011;128;48.770;9.198;2023-05-29T11:28:21;10.00;;;4.20;;
287;SDS011;128;48.770;9.198;2023-05-29T11:30:47;12.00;;;3.30;;
287;SDS011;128;48.770;9.198;2023-05-29T11:33:23;9.33;;;3.90;;
287;SDS011;128;48.770;9.198;2023-05-29T11:35:52;8.40;;;3.63;;
287;SDS011;128;48.770;9.198;2023-05-29T11:38:21;9.73;;;3.23;;
287;SDS011;128;48.770;9.198;2023-05-29T11:40:47;11.93;;;4.30;;
287;SDS011;128;48.770;9.198;2023-05-29T11:43:12;10.40;;;3.30;;
287;SDS011;128;48.770;9.198;2023-05-29T11:45:38;9.73;;;3.87;;
287;SDS011;128;48.770;9.198;2023-05-29T11:48:04;11.17;;;3.67;;
287;SDS011;128;48.770;9.198;2023-05-29T11:50:31;15.70;;;4.37;;
287;SDS011;128;48.770;9.198;2023-05-29T11:52:57;8.43;;;3.20;;
287;SDS011;128;48.770;9.198;2023-05-29T11:55:24;5.70;;;2.97;;
287;SDS011;128;48.770;9.198;2023-05-29T11:57:51;9.80;;;3.53;;
287;SDS011;128;48.770;9.198;2023-05-29T12:00:18;8.40;;;3.87;;
287;SDS011;128;48.770;9.198;2023-05-29T12:02:44;15.93;;;4.20;;
287;SDS011;128;48.770;9.198;2023-05-29T12:05:12;9.23;;;3.70;;
287;SDS011;128;48.770;9.198;2023-05-29T12:07:46;7.53;;;3.20;;
287;SDS011;128;48.770;9.198;2023-05-29T12:10:12;4.80;;;3.00;;
287;SDS011;128;48.770;9.198;2023-05-29T12:12:39;13.90;;;3.97;;
287;SDS011;128;48.770;9.198;2023-05-29T12:15:05;10.20;;;3.50;;
287;SDS011;128;48.770;9.198;2023-05-29T12:17:32;10.93;;;4.43;;
287;SDS011;128;48.770;9.198;2023-05-29T12:19:58;11.33;;;3.77;;
287;SDS011;128;48.770;9.198;2023-05-29T12:22:33;5.30;;;3.37;;
287;SDS011;128;48.770;9.198;2023-05-29T12:25:04;7.10;;;3.70;;
287;SDS011;128;48.770;9.198;2023-05-29T12:27:31;6.40;;;3.27;;
287;SDS011;128;48.770;9.198;2023-05-29T12:30:03;5.57;;;3.10;;
287;SDS011;128;48.770;9.198;2023-05-29T12:32:39;4.83;;;2.87;;
287;SDS011;128;48.770;9.198;2023-05-29T12:35:10;10.23;;;3.77;;
287;SDS011;128;48.770;9.198;2023-05-29T12:37:41;8.03;;;2.73;;
287;SDS011;128;48.770;9.198;2023-05-29T12:40:17;10.17;;;4.43;;
287;SDS011;128;48.770;9.198;2023-05-29T12:42:43;6.00;;;3.70;;
287;SDS011;128;48.770;9.198;2023-05-29T12:45:09;4.87;;;3.23;;
287;SDS011;128;48.770;9.198;2023-05-29T12:47:36;6.30;;;2.80;;
287;SDS011;128;48.770;9.198;2023-05-29T12:50:18;5.73;;;2.90;;
287;SDS011;128;48.770;9.198;2023-05-29T12:52:45;4.83;;;2.87;;
287;SDS011;128;48.770;9.198;2023-05-29T12:55:11;4.77;;;2.83;;
287;SDS011;128;48.770;9.198;2023-05-29T12:57:37;5.63;;;3.10;;
287;SDS011;128;48.770;9.198;2023-05-29T13:00:04;6.40;;;2.70;;
287;SDS011;128;48.770;9.198;2023-05-29T13:02:32;5.43;;;2.90;;
287;SDS011;128;48.770;9.198;2023-05-29T13:04:58;6.17;;;2.90;;
287;SDS011;128;48.770;9.198;2023-05-29T13:07:23;7.73;;;3.30;;
287;SDS011;128;48.770;9.198;2023-05-29T13:09:52;6.00;;;3.40;;
287;SDS011;128;48.770;9.198;2023-05-29T13:12:18;5.77;;;3.00;;
287;SDS011;128;48.770;9.198;2023-05-29T13:14:44;6.33;;;3.67;;
287;SDS011;128;48.770;9.198;2023-05-29T13:17:10;4.10;;;2.93;;
287;SDS011;128;48.770;9.198;2023-05-29T13:19:36;8.70;;;3.50;;
287;SDS011;128;48.770;9.198;2023-05-29T13:22:02;4.00;;;3.13;;
287;SDS011;128;48.770;9.198;2023-05-29T13:24:28;8.20;;;2.93;;
287;SDS011;128;48.770;9.198;2023-05-29T13:26:54;5.97;;;3.60;;
287;SDS011;128;48.770;9.198;2023-05-29T13:29:20;5.50;;;3.40;;
287;SDS011;128;48.770;9.198;2023-05-29T13:31:46;4.30;;;3.13;;
287;SDS011;128;48.770;9.198;2023-05-29T13:34:12;9.00;;;3.60;;
287;SDS011;128;48.770;9.198;2023-05-29T13:36:37;5.50;;;2.80;;
287;SDS011;128;48.770;9.198;2023-05-29T13:39:03;4.00;;;2.63;;
287;SDS011;128;48.770;9.198;2023-05-29T13:41:31;6.60;;;3.30;;
287;SDS011;128;48.770;9.198;2023-05-29T13:43:57;6.13;;;3.50;;
287;SDS011;128;48.770;9.198;2023-05-29T13:46:23;6.13;;;3.60;;
287;SDS011;128;48.770;9.198;2023-05-29T13:48:49;8.07;;;3.93;;
287;SDS011;128;48.770;9.198;2023-05-29T13:51:15;10.10;;;2.87;;
287;SDS011;128;48.770;9.198;2023-05-29T13:53:41;6.50;;;3.33;;
287;SDS011;128;48.770;9.198;2023-05-29T13:56:07;4.47;;;3.07;;
287;SDS011;128;48.770;9.198;2023-05-29T13:58:33;5.23;;;2.77;;
287;SDS011;128;48.770;9.198;2023-05-29T14:00:58;4.50;;;3.07;;
287;SDS011;128;48.770;9.198;2023-05-29T14:03:25;5.17;;;3.10;;
287;SDS011;128;48.770;9.198;2023-05-29T14:05:53;8.20;;;3.13;;
287;SDS011;128;48.770;9.198;2023-05-29T14:08:19;6.37;;;2.97;;
287;SDS011;128;48.770;9.198;2023-05-29T14:10:45;6.60;;;3.23;;
287;SDS011;128;48.770;9.198;2023-05-29T14:13:12;6.70;;;3.30;;
287;SDS011;128;48.770;9.198;2023-05-29T14:15:38;7.17;;;3.80;;
287;SDS011;128;48.770;9.198;2023-05-29T14:18:04;5.73;;;3.03;;
287;SDS011;128;48.770;9.198;2023-05-29T14:20:30;4.77;;;3.37;;
287;SDS011;128;48.770;9.198;2023-05-29T14:22:56;3.70;;;2.67;;
287;SDS011;128;48.770;9.198;2023-05-29T14:25:22;4.70;;;2.90;;
287;SDS011;128;48.770;9.198;2023-05-29T14:27:48;4.03;;;3.00;;
287;SDS011;128;48.770;9.198;2023-05-29T14:30:14;4.20;;;2.87;;
287;SDS011;128;48.770;9.198;2023-05-29T14:32:40;5.30;;;2.67;;
287;SDS011;128;48.770;9.198;2023-05-29T14:35:07;5.17;;;3.33;;
287;SDS011;128;48.770;9.198;2023-05-29T14:37:33;4.97;;;3.50;;
287;SDS011;128;48.770;9.198;2023-05-29T14:39:58;4.90;;;3.03;;
287;SDS011;128;48.770;9.198;2023-05-29T14:42:24;5.80;;;3.40;;
287;SDS011;128;48.770;9.198;2023-05-29T14:44:50;7.83;;;3.67;;
287;SDS011;128;48.770;9.198;2023-05-29T14:47:16;3.33;;;2.97;;
287;SDS011;128;48.770;9.198;2023-05-29T14:49:43;3.77;;;2.50;;
287;SDS011;128;48.770;9.198;2023-05-29T14:52:09;6.20;;;3.47;;
287;SDS011;128;48.770;9.198;2023-05-29T14:54:35;12.33;;;3.70;;
287;SDS011;128;48.770;9.198;2023-05-29T14:57:01;5.20;;;3.50;;
287;SDS011;128;48.770;9.198;2023-05-29T14:59:27;6.20;;;3.53;;
287;SDS011;128;48.770;9.198;2023-05-29T15:01:53;3.93;;;2.97;;
287;SDS011;128;48.770;9.198;2023-05-29T15:04:19;6.53;;;3.50;;
287;SDS011;128;48.770;9.198;2023-05-29T15:06:45;6.47;;;3.57;;
287;SDS011;128;48.770;9.198;2023-05-29T15:09:11;7.87;;;3.27;;
287;SDS011;128;48.770;9.198;2023-05-29T15:11:37;8.47;;;4.73;;
287;SDS011;128;48.770;9.198;2023-05-29T15:14:03;6.73;;;3.90;;
287;SDS011;128;48.770;9.198;2023-05-29T15:16:29;9.63;;;4.20;;
287;SDS011;128;48.770;9.198;2023-05-29T15:18:55;7.00;;;2.77;;
287;SDS011;128;48.770;9.198;2023-05-29T15:21:22;6.53;;;3.30;;
287;SDS011;128;48.770;9.198;2023-05-29T15:23:48;19.70;;;3.60;;
287;SDS011;128;48.770;9.198;2023-05-29T15:26:14;9.53;;;2.80;;
287;SDS011;128;48.770;9.198;2023-05-29T15:28:40;9.63;;;3.17;;
287;SDS011;128;48.770;9.198;2023-05-29T15:31:06;6.90;;;2.97;;
287;SDS011;128;48.770;9.198;2023-05-29T15:33:32;11.60;;;3.27;;
287;SDS011;128;48.770;9.198;2023-05-29T15:35:58;6.60;;;3.30;;
287;SDS011;128;48.770;9.198;2023-05-29T15:38:24;4.67;;;2.90;;
287;SDS011;128;48.770;9.198;2023-05-29T15:40:51;5.40;;;2.70;;
287;SDS011;128;48.770;9.198;2023-05-29T15:43:17;6.10;;;2.83;;
287;SDS011;128;48.770;9.198;2023-05-29T15:45:43;3.70;;;2.57;;
287;SDS011;128;48.770;9.198;2023-05-29T15:48:09;3.50;;;2.27;;
287;SDS011;128;48.770;9.198;2023-05-29T15:50:35;5.87;;;3.87;;
287;SDS011;128;48.770;9.198;2023-05-29T15:53:01;5.57;;;3.30;;